createdAt,value
2022-11-28T00:00:14.704Z,417.00
2022-11-28T00:01:09.841Z,417.00
2022-11-28T00:02:05.291Z,417.00
2022-11-28T00:03:00.903Z,423.00
2022-11-28T00:03:56.081Z,421.00
2022-11-28T00:04:51.351Z,421.00
2022-11-28T00:05:47.800Z,423.00
2022-11-28T00:06:43.243Z,425.00
2022-11-28T00:07:38.900Z,426.00
2022-11-28T00:08:34.119Z,423.00
2022-11-28T00:09:29.306Z,424.00
2022-11-28T00:10:25.168Z,420.00
2022-11-28T00:11:20.388Z,412.00
2022-11-28T00:12:15.535Z,420.00
2022-11-28T00:13:10.680Z,419.00
2022-11-28T00:14:05.869Z,422.00
2022-11-28T00:15:00.882Z,421.00
2022-11-28T00:15:56.056Z,416.00
2022-11-28T00:16:51.191Z,420.00
2022-11-28T00:17:46.279Z,427.00
2022-11-28T00:18:41.297Z,423.00
2022-11-28T00:19:36.334Z,423.00
2022-11-28T00:20:31.404Z,421.00
2022-11-28T00:21:26.454Z,419.00
2022-11-28T00:22:21.499Z,424.00
2022-11-28T00:23:16.545Z,420.00
2022-11-28T00:24:11.579Z,421.00
2022-11-28T00:25:06.634Z,419.00
2022-11-28T00:26:01.704Z,408.00
2022-11-28T00:26:56.772Z,414.00
2022-11-28T00:27:51.813Z,415.00
2022-11-28T00:28:46.841Z,415.00
2022-11-28T00:29:42.405Z,416.00
2022-11-28T00:30:37.638Z,416.00
2022-11-28T00:31:32.962Z,417.00
2022-11-28T00:32:28.211Z,410.00
2022-11-28T00:33:23.388Z,410.00
2022-11-28T00:34:18.682Z,405.00
2022-11-28T00:35:14.960Z,415.00
2022-11-28T00:36:10.319Z,413.00
2022-11-28T00:37:05.459Z,414.00
2022-11-28T00:38:00.647Z,413.00
2022-11-28T00:38:55.776Z,410.00
2022-11-28T00:39:51.223Z,416.00
2022-11-28T00:40:46.255Z,414.00
2022-11-28T00:41:41.702Z,415.00
2022-11-28T00:42:36.732Z,413.00
2022-11-28T00:43:32.175Z,416.00
2022-11-28T00:44:27.363Z,415.00
2022-11-28T00:45:22.647Z,407.00
2022-11-28T00:46:17.849Z,411.00
2022-11-28T00:47:12.959Z,403.00
2022-11-28T00:48:08.091Z,413.00
2022-11-28T00:49:03.379Z,412.00
2022-11-28T00:49:58.560Z,416.00
2022-11-28T00:50:53.713Z,414.00
2022-11-28T00:51:49.053Z,414.00
2022-11-28T00:52:44.099Z,409.00
2022-11-28T00:53:39.251Z,408.00
2022-11-28T00:54:34.424Z,408.00
2022-11-28T00:55:29.575Z,409.00
2022-11-28T00:56:25.029Z,405.00
2022-11-28T00:57:20.064Z,411.00
2022-11-28T00:58:15.225Z,411.00
2022-11-28T00:59:10.365Z,410.00
2022-11-28T01:00:05.951Z,410.00
2022-11-28T01:01:01.009Z,405.00
2022-11-28T01:01:56.113Z,405.00
2022-11-28T01:02:51.247Z,414.00
2022-11-28T01:03:46.284Z,410.00
2022-11-28T01:04:41.494Z,410.00
2022-11-28T01:05:36.358Z,415.00
2022-11-28T01:06:31.391Z,411.00
2022-11-28T01:07:26.866Z,416.00
2022-11-28T01:08:21.788Z,413.00
2022-11-28T01:09:16.808Z,407.00
2022-11-28T01:10:11.819Z,415.00
2022-11-28T01:11:06.848Z,408.00
2022-11-28T01:12:01.844Z,414.00
2022-11-28T01:12:56.941Z,416.00
2022-11-28T01:13:51.950Z,411.00
2022-11-28T01:14:47.000Z,409.00
2022-11-28T01:15:42.024Z,406.00
2022-11-28T01:16:37.186Z,413.00
2022-11-28T01:17:32.148Z,412.00
2022-11-28T01:18:27.241Z,413.00
2022-11-28T01:19:22.367Z,421.00
2022-11-28T01:20:17.843Z,412.00
2022-11-28T01:21:12.873Z,415.00
2022-11-28T01:22:08.207Z,415.00
2022-11-28T01:23:03.368Z,409.00
2022-11-28T01:23:58.665Z,413.00
2022-11-28T01:24:53.794Z,415.00
2022-11-28T01:25:48.990Z,416.00
2022-11-28T01:26:44.711Z,415.00
2022-11-28T01:27:39.971Z,411.00
2022-11-28T01:28:35.692Z,417.00
2022-11-28T01:29:30.982Z,416.00
2022-11-28T01:30:26.171Z,417.00
2022-11-28T01:31:22.502Z,413.00
2022-11-28T01:32:17.286Z,405.00
2022-11-28T01:33:12.568Z,407.00
2022-11-28T01:34:08.843Z,412.00
2022-11-28T01:35:04.166Z,410.00
2022-11-28T01:35:59.881Z,408.00
2022-11-28T01:36:55.079Z,412.00
2022-11-28T01:37:50.244Z,415.00
2022-11-28T01:38:46.166Z,416.00
2022-11-28T01:39:41.317Z,412.00
2022-11-28T01:40:37.297Z,412.00
2022-11-28T01:41:32.351Z,411.00
2022-11-28T01:42:27.553Z,409.00
2022-11-28T01:43:23.342Z,413.00
2022-11-28T01:44:18.513Z,416.00
2022-11-28T01:45:13.819Z,414.00
2022-11-28T01:46:10.096Z,414.00
2022-11-28T01:47:05.355Z,414.00
2022-11-28T01:48:01.130Z,418.00
2022-11-28T01:48:56.430Z,416.00
2022-11-28T01:49:51.742Z,422.00
2022-11-28T01:50:47.512Z,420.00
2022-11-28T01:51:42.689Z,415.00
2022-11-28T01:52:38.577Z,419.00
2022-11-28T01:53:33.701Z,419.00
2022-11-28T01:54:29.169Z,416.00
2022-11-28T01:55:24.782Z,423.00
2022-11-28T01:56:20.129Z,424.00
2022-11-28T01:57:15.276Z,420.00
2022-11-28T01:58:11.807Z,418.00
2022-11-28T01:59:06.995Z,421.00
2022-11-28T02:00:02.868Z,419.00
2022-11-28T02:00:58.045Z,423.00
2022-11-28T02:01:53.278Z,425.00
2022-11-28T02:02:48.984Z,425.00
2022-11-28T02:03:44.197Z,419.00
2022-11-28T02:04:40.016Z,415.00
2022-11-28T02:05:35.140Z,421.00
2022-11-28T02:06:30.486Z,420.00
2022-11-28T02:07:26.307Z,414.00
2022-11-28T02:08:21.490Z,424.00
2022-11-28T02:09:16.668Z,416.00
2022-11-28T02:10:12.950Z,418.00
2022-11-28T02:11:08.121Z,420.00
2022-11-28T02:12:03.832Z,424.00
2022-11-28T02:12:59.015Z,426.00
2022-11-28T02:13:54.192Z,425.00
2022-11-28T02:14:49.949Z,420.00
2022-11-28T02:15:45.154Z,423.00
2022-11-28T02:16:41.086Z,429.00
2022-11-28T02:17:36.138Z,427.00
2022-11-28T02:18:31.592Z,424.00
2022-11-28T02:19:27.325Z,426.00
2022-11-28T02:20:22.669Z,422.00
2022-11-28T02:21:17.946Z,422.00
2022-11-28T02:22:14.373Z,424.00
2022-11-28T02:23:09.539Z,425.00
2022-11-28T02:24:05.434Z,428.00
2022-11-28T02:25:00.575Z,421.00
2022-11-28T02:25:56.053Z,423.00
2022-11-28T02:26:51.103Z,424.00
2022-11-28T02:27:46.540Z,424.00
2022-11-28T02:28:42.283Z,429.00
2022-11-28T02:29:37.510Z,420.00
2022-11-28T02:30:32.781Z,425.00
2022-11-28T02:31:29.283Z,421.00
2022-11-28T02:32:24.468Z,423.00
2022-11-28T02:33:20.377Z,422.00
2022-11-28T02:34:15.503Z,429.00
2022-11-28T02:35:10.989Z,426.00
2022-11-28T02:36:06.609Z,430.00
2022-11-28T02:37:01.921Z,421.00
2022-11-28T02:37:57.666Z,426.00
2022-11-28T02:38:52.855Z,420.00
2022-11-28T02:39:48.155Z,421.00
2022-11-28T02:40:43.896Z,428.00
2022-11-28T02:41:39.063Z,426.00
2022-11-28T02:42:34.251Z,430.00
2022-11-28T02:43:29.417Z,429.00
2022-11-28T02:44:24.725Z,431.00
2022-11-28T02:45:19.776Z,423.00
2022-11-28T02:46:14.918Z,427.00
2022-11-28T02:47:13.384Z,428.00
2022-11-28T02:48:08.591Z,426.00
2022-11-28T02:49:03.885Z,420.00
2022-11-28T02:49:59.198Z,425.00
2022-11-28T02:50:54.225Z,421.00
2022-11-28T02:51:49.289Z,429.00
2022-11-28T02:52:44.331Z,426.00
2022-11-28T02:53:39.368Z,424.00
2022-11-28T02:54:34.426Z,425.00
2022-11-28T02:55:29.449Z,422.00
2022-11-28T02:56:24.517Z,425.00
2022-11-28T02:57:19.584Z,420.00
2022-11-28T02:58:14.591Z,423.00
2022-11-28T02:59:09.645Z,426.00
2022-11-28T03:00:04.813Z,422.00
2022-11-28T03:00:59.904Z,420.00
2022-11-28T03:01:54.912Z,425.00
2022-11-28T03:02:49.946Z,424.00
2022-11-28T03:03:45.019Z,417.00
2022-11-28T03:04:40.320Z,422.00
2022-11-28T03:05:35.306Z,426.00
2022-11-28T03:06:30.512Z,420.00
2022-11-28T03:07:25.709Z,424.00
2022-11-28T03:08:20.756Z,421.00
2022-11-28T03:09:15.782Z,421.00
2022-11-28T03:10:10.811Z,426.00
2022-11-28T03:11:05.865Z,418.00
2022-11-28T03:12:01.025Z,420.00
2022-11-28T03:12:56.032Z,417.00
2022-11-28T03:13:51.090Z,417.00
2022-11-28T03:14:46.109Z,423.00
2022-11-28T03:15:41.259Z,418.00
2022-11-28T03:16:36.325Z,420.00
2022-11-28T03:17:31.371Z,425.00
2022-11-28T03:18:26.392Z,421.00
2022-11-28T03:19:21.407Z,427.00
2022-11-28T03:20:16.558Z,432.00
2022-11-28T03:21:11.764Z,424.00
2022-11-28T03:22:06.923Z,424.00
2022-11-28T03:23:02.411Z,426.00
2022-11-28T03:23:57.443Z,416.00
2022-11-28T03:24:52.624Z,421.00
2022-11-28T03:25:47.787Z,423.00
2022-11-28T03:26:43.103Z,421.00
2022-11-28T03:27:38.411Z,418.00
2022-11-28T03:28:33.475Z,421.00
2022-11-28T03:29:28.621Z,421.00
2022-11-28T03:30:23.810Z,424.00
2022-11-28T03:31:19.155Z,414.00
2022-11-28T03:32:14.314Z,417.00
2022-11-28T03:33:09.511Z,427.00
2022-11-28T03:34:04.690Z,419.00
2022-11-28T03:34:59.873Z,427.00
2022-11-28T03:35:55.038Z,422.00
2022-11-28T03:36:50.203Z,421.00
2022-11-28T03:37:45.411Z,420.00
2022-11-28T03:38:40.548Z,423.00
2022-11-28T03:39:35.979Z,418.00
2022-11-28T03:40:31.126Z,423.00
2022-11-28T03:41:26.195Z,431.00
2022-11-28T03:42:21.381Z,427.00
2022-11-28T03:43:16.525Z,421.00
2022-11-28T03:44:11.825Z,420.00
2022-11-28T03:45:07.125Z,417.00
2022-11-28T03:46:02.125Z,417.00
2022-11-28T03:46:57.405Z,418.00
2022-11-28T03:47:52.555Z,418.00
2022-11-28T03:48:47.838Z,416.00
2022-11-28T03:49:45.560Z,418.00
2022-11-28T03:50:40.739Z,417.00
2022-11-28T03:51:35.895Z,427.00
2022-11-28T03:52:31.087Z,420.00
2022-11-28T03:53:26.409Z,420.00
2022-11-28T03:54:21.572Z,427.00
2022-11-28T03:55:16.665Z,423.00
2022-11-28T03:56:11.773Z,421.00
2022-11-28T03:57:06.677Z,416.00
2022-11-28T03:58:01.828Z,421.00
2022-11-28T03:58:56.827Z,418.00
2022-11-28T03:59:51.903Z,414.00
2022-11-28T04:00:46.968Z,419.00
2022-11-28T04:01:42.027Z,418.00
2022-11-28T04:02:37.113Z,420.00
2022-11-28T04:03:32.080Z,421.00
2022-11-28T04:04:27.107Z,426.00
2022-11-28T04:05:22.135Z,423.00
2022-11-28T04:06:17.184Z,427.00
2022-11-28T04:07:12.493Z,417.00
2022-11-28T04:08:07.315Z,419.00
2022-11-28T04:09:02.435Z,422.00
2022-11-28T04:09:57.453Z,423.00
2022-11-28T04:10:52.496Z,423.00
2022-11-28T04:11:47.529Z,419.00
2022-11-28T04:12:42.549Z,420.00
2022-11-28T04:13:37.781Z,424.00
2022-11-28T04:14:32.949Z,419.00
2022-11-28T04:15:28.094Z,421.00
2022-11-28T04:16:23.357Z,423.00
2022-11-28T04:17:18.506Z,420.00
2022-11-28T04:18:13.798Z,426.00
2022-11-28T04:19:08.997Z,423.00
2022-11-28T04:20:04.325Z,428.00
2022-11-28T04:20:59.604Z,424.00
2022-11-28T04:21:54.803Z,426.00
2022-11-28T04:22:49.947Z,435.00
2022-11-28T04:23:45.151Z,426.00
2022-11-28T04:24:40.488Z,430.00
2022-11-28T04:25:35.514Z,429.00
2022-11-28T04:26:30.704Z,431.00
2022-11-28T04:27:26.004Z,426.00
2022-11-28T04:28:21.294Z,430.00
2022-11-28T04:29:16.504Z,429.00
2022-11-28T04:30:11.657Z,442.00
2022-11-28T04:31:06.894Z,427.00
2022-11-28T04:32:02.109Z,428.00
2022-11-28T04:32:57.463Z,416.00
2022-11-28T04:33:52.519Z,425.00
2022-11-28T04:34:47.824Z,424.00
2022-11-28T04:35:42.989Z,422.00
2022-11-28T04:36:38.327Z,429.00
2022-11-28T04:37:33.629Z,432.00
2022-11-28T04:38:28.706Z,419.00
2022-11-28T04:39:23.849Z,422.00
2022-11-28T04:40:19.044Z,421.00
2022-11-28T04:41:14.161Z,420.00
2022-11-28T04:42:09.459Z,426.00
2022-11-28T04:43:04.648Z,422.00
2022-11-28T04:43:59.940Z,430.00
2022-11-28T04:44:55.222Z,429.00
2022-11-28T04:45:50.447Z,430.00
2022-11-28T04:46:45.599Z,426.00
2022-11-28T04:47:40.798Z,424.00
2022-11-28T04:48:35.924Z,425.00
2022-11-28T04:49:31.375Z,429.00
2022-11-28T04:50:26.407Z,441.00
2022-11-28T04:51:21.586Z,436.00
2022-11-28T04:52:16.829Z,436.00
2022-11-28T04:53:12.200Z,436.00
2022-11-28T04:54:07.216Z,437.00
2022-11-28T04:55:02.271Z,436.00
2022-11-28T04:55:57.303Z,436.00
2022-11-28T04:56:52.331Z,432.00
2022-11-28T04:57:47.372Z,436.00
2022-11-28T04:58:42.426Z,435.00
2022-11-28T04:59:37.490Z,433.00
2022-11-28T05:00:32.557Z,446.00
2022-11-28T05:01:27.703Z,438.00
2022-11-28T05:02:22.793Z,439.00
2022-11-28T05:03:17.698Z,432.00
2022-11-28T05:04:12.778Z,438.00
2022-11-28T05:05:07.803Z,433.00
2022-11-28T05:06:02.849Z,434.00
2022-11-28T05:06:57.870Z,433.00
2022-11-28T05:07:53.023Z,429.00
2022-11-28T05:08:47.932Z,435.00
2022-11-28T05:09:42.964Z,437.00
2022-11-28T05:10:37.974Z,434.00
2022-11-28T05:11:33.723Z,435.00
2022-11-28T05:12:28.874Z,433.00
2022-11-28T05:13:24.049Z,428.00
2022-11-28T05:14:19.243Z,432.00
2022-11-28T05:15:14.701Z,432.00
2022-11-28T05:16:10.044Z,433.00
2022-11-28T05:17:05.112Z,436.00
2022-11-28T05:18:00.282Z,440.00
2022-11-28T05:18:55.483Z,440.00
2022-11-28T05:19:51.339Z,441.00
2022-11-28T05:20:46.665Z,437.00
2022-11-28T05:21:42.398Z,439.00
2022-11-28T05:22:37.580Z,435.00
2022-11-28T05:23:32.916Z,433.00
2022-11-28T05:24:32.216Z,437.00
2022-11-28T05:25:23.756Z,438.00
2022-11-28T05:26:18.960Z,442.00
2022-11-28T05:27:15.377Z,440.00
2022-11-28T05:28:10.739Z,436.00
2022-11-28T05:29:06.484Z,444.00
2022-11-28T05:30:01.669Z,435.00
2022-11-28T05:30:56.878Z,442.00
2022-11-28T05:31:52.725Z,450.00
2022-11-28T05:32:47.883Z,445.00
2022-11-28T05:33:43.626Z,435.00
2022-11-28T05:34:38.781Z,436.00
2022-11-28T05:35:34.137Z,435.00
2022-11-28T05:36:29.890Z,435.00
2022-11-28T05:37:25.222Z,439.00
2022-11-28T05:38:20.423Z,441.00
2022-11-28T05:39:16.704Z,443.00
2022-11-28T05:40:12.043Z,449.00
2022-11-28T05:41:07.794Z,431.00
2022-11-28T05:42:03.036Z,429.00
2022-11-28T05:42:58.204Z,430.00
2022-11-28T05:43:53.980Z,433.00
2022-11-28T05:44:49.154Z,433.00
2022-11-28T05:45:45.118Z,433.00
2022-11-28T05:46:40.166Z,436.00
2022-11-28T05:47:35.364Z,439.00
2022-11-28T05:48:31.320Z,441.00
2022-11-28T05:49:26.406Z,439.00
2022-11-28T05:50:21.694Z,438.00
2022-11-28T05:51:18.158Z,443.00
2022-11-28T05:52:13.325Z,440.00
2022-11-28T05:53:09.109Z,433.00
2022-11-28T05:54:04.249Z,432.00
2022-11-28T05:54:59.702Z,442.00
2022-11-28T05:55:55.318Z,438.00
2022-11-28T05:56:50.681Z,436.00
2022-11-28T05:57:46.431Z,443.00
2022-11-28T05:58:41.601Z,440.00
2022-11-28T05:59:36.916Z,440.00
2022-11-28T06:00:32.666Z,442.00
2022-11-28T06:01:27.861Z,435.00
2022-11-28T06:02:23.124Z,432.00
2022-11-28T06:03:19.481Z,433.00
2022-11-28T06:04:14.865Z,431.00
2022-11-28T06:05:34.701Z,435.00
2022-11-28T06:06:06.793Z,432.00
2022-11-28T06:07:01.081Z,433.00
2022-11-28T06:07:57.438Z,434.00
2022-11-28T06:08:52.656Z,434.00
2022-11-28T06:09:48.515Z,438.00
2022-11-28T06:10:43.664Z,442.00
2022-11-28T06:11:39.027Z,439.00
2022-11-28T06:12:34.747Z,437.00
2022-11-28T06:13:29.964Z,443.00
2022-11-28T06:14:25.145Z,453.00
2022-11-28T06:15:21.591Z,444.00
2022-11-28T06:16:16.807Z,444.00
2022-11-28T06:17:12.554Z,431.00
2022-11-28T06:18:07.742Z,430.00
2022-11-28T06:19:02.955Z,441.00
2022-11-28T06:19:58.110Z,441.00
2022-11-28T06:20:53.525Z,437.00
2022-11-28T06:21:49.451Z,438.00
2022-11-28T06:22:44.651Z,436.00
2022-11-28T06:23:39.804Z,462.00
2022-11-28T06:24:36.251Z,458.00
2022-11-28T06:25:31.417Z,449.00
2022-11-28T06:26:27.169Z,448.00
2022-11-28T06:27:22.376Z,453.00
2022-11-28T06:28:17.593Z,455.00
2022-11-28T06:29:13.378Z,447.00
2022-11-28T06:30:08.639Z,444.00
2022-11-28T06:31:04.530Z,445.00
2022-11-28T06:31:59.684Z,449.00
2022-11-28T06:32:55.068Z,450.00
2022-11-28T06:33:50.941Z,455.00
2022-11-28T06:34:46.185Z,448.00
2022-11-28T06:35:41.561Z,459.00
2022-11-28T06:36:36.652Z,460.00
2022-11-28T06:37:31.893Z,462.00
2022-11-28T06:38:26.921Z,460.00
2022-11-28T06:39:21.920Z,465.00
2022-11-28T06:40:20.551Z,476.00
2022-11-28T06:41:15.827Z,462.00
2022-11-28T06:42:11.061Z,471.00
2022-11-28T06:43:06.387Z,465.00
2022-11-28T06:44:01.324Z,462.00
2022-11-28T06:44:56.462Z,452.00
2022-11-28T06:45:51.572Z,452.00
2022-11-28T06:46:46.478Z,451.00
2022-11-28T06:47:41.606Z,454.00
2022-11-28T06:48:36.798Z,452.00
2022-11-28T06:49:31.787Z,459.00
2022-11-28T06:50:26.959Z,457.00
2022-11-28T06:51:22.556Z,450.00
2022-11-28T06:52:17.834Z,453.00
2022-11-28T06:53:13.165Z,453.00
2022-11-28T06:54:08.465Z,458.00
2022-11-28T06:55:03.508Z,449.00
2022-11-28T06:55:58.571Z,456.00
2022-11-28T06:56:53.586Z,457.00
2022-11-28T06:57:48.687Z,456.00
2022-11-28T06:58:43.665Z,454.00
2022-11-28T06:59:38.733Z,444.00
2022-11-28T07:00:35.981Z,451.00
2022-11-28T07:01:31.210Z,449.00
2022-11-28T07:02:26.214Z,442.00
2022-11-28T07:03:21.315Z,447.00
2022-11-28T07:04:16.386Z,439.00
2022-11-28T07:05:11.481Z,488.00
2022-11-28T07:06:06.577Z,458.00
2022-11-28T07:07:01.665Z,448.00
2022-11-28T07:07:56.636Z,445.00
2022-11-28T07:08:51.736Z,445.00
2022-11-28T07:09:46.705Z,447.00
2022-11-28T07:10:41.789Z,456.00
2022-11-28T07:11:36.838Z,435.00
2022-11-28T07:12:31.950Z,439.00
2022-11-28T07:13:27.000Z,460.00
2022-11-28T07:14:22.510Z,439.00
2022-11-28T07:15:20.825Z,432.00
2022-11-28T07:16:16.277Z,434.00
2022-11-28T07:17:11.493Z,435.00
2022-11-28T07:18:06.856Z,431.00
2022-11-28T07:19:02.189Z,436.00
2022-11-28T07:19:57.703Z,431.00
2022-11-28T07:20:52.901Z,436.00
2022-11-28T07:21:48.235Z,432.00
2022-11-28T07:22:43.591Z,435.00
2022-11-28T07:23:41.676Z,435.00
2022-11-28T07:24:37.027Z,452.00
2022-11-28T07:25:32.537Z,436.00
2022-11-28T07:26:27.767Z,432.00
2022-11-28T07:27:23.217Z,442.00
2022-11-28T07:28:21.982Z,427.00
2022-11-28T07:29:13.904Z,438.00
2022-11-28T07:30:09.238Z,444.00
2022-11-28T07:31:04.629Z,445.00
2022-11-28T07:32:00.029Z,438.00
2022-11-28T07:32:55.284Z,439.00
2022-11-28T07:33:50.599Z,434.00
2022-11-28T07:34:49.945Z,436.00
2022-11-28T07:35:41.297Z,460.00
2022-11-28T07:36:36.719Z,431.00
2022-11-28T07:37:32.088Z,430.00
2022-11-28T07:38:27.479Z,438.00
2022-11-28T07:39:22.855Z,443.00
2022-11-28T07:40:18.420Z,443.00
2022-11-28T07:41:13.651Z,444.00
2022-11-28T07:42:09.082Z,446.00
2022-11-28T07:43:05.694Z,443.00
2022-11-28T07:44:01.103Z,439.00
2022-11-28T07:44:56.493Z,437.00
2022-11-28T07:46:00.887Z,428.00
2022-11-28T07:46:48.805Z,428.00
2022-11-28T07:47:43.234Z,446.00
2022-11-28T07:48:38.769Z,441.00
2022-11-28T07:49:33.920Z,430.00
2022-11-28T07:50:28.917Z,435.00
2022-11-28T07:51:23.932Z,438.00
2022-11-28T07:52:18.928Z,429.00
2022-11-28T07:53:14.069Z,432.00
2022-11-28T07:54:09.157Z,436.00
2022-11-28T07:55:04.297Z,439.00
2022-11-28T07:56:01.590Z,438.00
2022-11-28T07:57:12.432Z,434.00
2022-11-28T07:57:52.687Z,434.00
2022-11-28T07:58:46.789Z,429.00
2022-11-28T07:59:43.126Z,441.00
2022-11-28T08:00:38.388Z,435.00
2022-11-28T08:01:34.855Z,436.00
2022-11-28T08:02:30.276Z,436.00
2022-11-28T08:03:24.912Z,438.00
2022-11-28T08:04:20.471Z,439.00
2022-11-28T08:05:15.881Z,429.00
2022-11-28T08:06:11.471Z,437.00
2022-11-28T08:07:06.793Z,431.00
2022-11-28T08:08:02.393Z,432.00
2022-11-28T08:08:58.002Z,432.00
2022-11-28T08:09:53.325Z,434.00
2022-11-28T08:10:48.758Z,430.00
2022-11-28T08:11:44.239Z,426.00
2022-11-28T08:12:39.242Z,428.00
2022-11-28T08:13:34.338Z,435.00
2022-11-28T08:14:29.377Z,435.00
2022-11-28T08:15:24.414Z,428.00
2022-11-28T08:16:19.608Z,433.00
2022-11-28T08:17:14.751Z,429.00
2022-11-28T08:18:09.784Z,431.00
2022-11-28T08:19:06.594Z,428.00
2022-11-28T08:20:01.784Z,433.00
2022-11-28T08:20:56.864Z,433.00
2022-11-28T08:21:51.909Z,430.00
2022-11-28T08:22:47.094Z,431.00
2022-11-28T08:23:41.998Z,436.00
2022-11-28T08:24:37.229Z,428.00
2022-11-28T08:25:32.285Z,435.00
2022-11-28T08:26:30.395Z,440.00
2022-11-28T08:27:23.090Z,437.00
2022-11-28T08:28:18.702Z,436.00
2022-11-28T08:29:14.053Z,441.00
2022-11-28T08:30:09.486Z,433.00
2022-11-28T08:31:04.970Z,436.00
2022-11-28T08:32:00.404Z,436.00
2022-11-28T08:32:55.979Z,436.00
2022-11-28T08:33:51.455Z,430.00
2022-11-28T08:34:46.880Z,430.00
2022-11-28T08:35:42.317Z,432.00
2022-11-28T08:36:37.762Z,431.00
2022-11-28T08:37:33.355Z,429.00
2022-11-28T08:38:28.762Z,433.00
2022-11-28T08:39:25.268Z,440.00
2022-11-28T08:40:19.556Z,449.00
2022-11-28T08:41:15.019Z,439.00
2022-11-28T08:42:14.378Z,438.00
2022-11-28T08:43:09.853Z,438.00
2022-11-28T08:44:05.186Z,444.00
2022-11-28T08:45:00.681Z,431.00
2022-11-28T08:45:56.207Z,441.00
2022-11-28T08:46:51.204Z,450.00
2022-11-28T08:47:46.231Z,442.00
2022-11-28T08:48:41.293Z,441.00
2022-11-28T08:49:36.319Z,443.00
2022-11-28T08:50:31.386Z,436.00
2022-11-28T08:51:26.439Z,437.00
2022-11-28T08:52:21.784Z,440.00
2022-11-28T08:53:18.561Z,441.00
2022-11-28T08:54:11.883Z,452.00
2022-11-28T08:55:06.947Z,475.00
2022-11-28T08:56:01.988Z,454.00
2022-11-28T08:56:57.037Z,437.00
2022-11-28T08:57:52.125Z,431.00
2022-11-28T08:58:47.160Z,445.00
2022-11-28T08:59:42.379Z,440.00
2022-11-28T09:00:37.208Z,434.00
2022-11-28T09:01:32.521Z,437.00
2022-11-28T09:02:27.843Z,437.00
2022-11-28T09:03:23.439Z,429.00
2022-11-28T09:04:18.914Z,433.00
2022-11-28T09:05:15.377Z,435.00
2022-11-28T09:06:10.798Z,428.00
2022-11-28T09:07:06.390Z,429.00
2022-11-28T09:08:01.933Z,435.00
2022-11-28T09:08:57.275Z,433.00
2022-11-28T09:09:52.746Z,428.00
2022-11-28T09:10:48.253Z,431.00
2022-11-28T09:11:43.680Z,430.00
2022-11-28T09:12:39.146Z,435.00
2022-11-28T09:13:34.642Z,441.00
2022-11-28T09:14:29.719Z,435.00
2022-11-28T09:15:24.767Z,442.00
2022-11-28T09:16:20.028Z,436.00
2022-11-28T09:17:14.966Z,438.00
2022-11-28T09:18:10.066Z,424.00
2022-11-28T09:19:04.998Z,438.00
2022-11-28T09:20:00.118Z,441.00
2022-11-28T09:20:57.730Z,438.00
2022-11-28T09:21:57.549Z,432.00
2022-11-28T09:22:48.605Z,462.00
2022-11-28T09:23:44.122Z,504.00
2022-11-28T09:24:39.563Z,447.00
2022-11-28T09:25:35.010Z,445.00
2022-11-28T09:26:30.478Z,449.00
2022-11-28T09:27:25.931Z,432.00
2022-11-28T09:28:21.371Z,456.00
2022-11-28T09:29:16.906Z,448.00
2022-11-28T09:30:12.343Z,450.00
2022-11-28T09:31:07.897Z,448.00
2022-11-28T09:32:03.375Z,444.00
2022-11-28T09:32:58.810Z,439.00
2022-11-28T09:33:54.328Z,438.00
2022-11-28T09:34:49.251Z,430.00
2022-11-28T09:35:44.259Z,432.00
2022-11-28T09:36:39.325Z,448.00
2022-11-28T09:37:34.371Z,433.00
2022-11-28T09:38:29.419Z,424.00
2022-11-28T09:39:24.605Z,430.00
2022-11-28T09:40:19.712Z,429.00
2022-11-28T09:41:14.570Z,438.00
2022-11-28T09:42:09.633Z,433.00
2022-11-28T09:43:04.678Z,443.00
2022-11-28T09:43:59.752Z,450.00
2022-11-28T09:44:54.783Z,441.00
2022-11-28T09:45:49.997Z,447.00
2022-11-28T09:46:45.106Z,438.00
2022-11-28T09:47:40.130Z,449.00
2022-11-28T09:48:35.223Z,442.00
2022-11-28T09:49:32.117Z,449.00
2022-11-28T09:50:26.325Z,442.00
2022-11-28T09:51:20.567Z,440.00
2022-11-28T09:52:16.302Z,438.00
2022-11-28T09:53:11.187Z,439.00
2022-11-28T09:54:06.264Z,439.00
2022-11-28T09:55:01.332Z,431.00
2022-11-28T09:55:56.404Z,437.00
2022-11-28T09:56:51.466Z,435.00
2022-11-28T09:57:46.572Z,443.00
2022-11-28T09:58:41.526Z,435.00
2022-11-28T09:59:36.639Z,443.00
2022-11-28T10:00:31.692Z,440.00
2022-11-28T10:01:26.769Z,443.00
2022-11-28T10:02:21.838Z,440.00
2022-11-28T10:03:16.991Z,447.00
2022-11-28T10:04:12.058Z,437.00
2022-11-28T10:05:07.115Z,443.00
2022-11-28T10:06:02.439Z,443.00
2022-11-28T10:06:57.913Z,439.00
2022-11-28T10:07:55.158Z,437.00
2022-11-28T10:08:48.975Z,433.00
2022-11-28T10:09:44.682Z,438.00
2022-11-28T10:10:39.504Z,435.00
2022-11-28T10:11:34.531Z,432.00
2022-11-28T10:12:29.585Z,429.00
2022-11-28T10:13:32.639Z,435.00
2022-11-28T10:14:22.063Z,427.00
2022-11-28T10:15:16.063Z,435.00
2022-11-28T10:16:11.278Z,430.00
2022-11-28T10:17:07.277Z,434.00
2022-11-28T10:18:02.651Z,432.00
2022-11-28T10:18:58.090Z,428.00
2022-11-28T10:19:54.830Z,434.00
2022-11-28T10:20:49.062Z,429.00
2022-11-28T10:21:44.537Z,428.00
2022-11-28T10:22:40.013Z,431.00
2022-11-28T10:23:35.435Z,432.00
2022-11-28T10:24:31.006Z,427.00
2022-11-28T10:25:26.617Z,431.00
2022-11-28T10:26:21.914Z,433.00
2022-11-28T10:27:18.460Z,447.00
2022-11-28T10:28:12.712Z,439.00
2022-11-28T10:29:08.202Z,435.00
2022-11-28T10:30:03.215Z,442.00
2022-11-28T10:30:58.302Z,443.00
2022-11-28T10:31:53.368Z,432.00
2022-11-28T10:32:48.419Z,422.00
2022-11-28T10:33:43.461Z,427.00
2022-11-28T10:34:38.489Z,430.00
2022-11-28T10:35:33.552Z,427.00
2022-11-28T10:36:30.927Z,434.00
2022-11-28T10:37:25.945Z,429.00
2022-11-28T10:38:20.969Z,433.00
2022-11-28T10:39:16.011Z,426.00
2022-11-28T10:40:11.029Z,431.00
2022-11-28T10:41:06.090Z,424.00
2022-11-28T10:42:01.329Z,427.00
2022-11-28T10:42:56.204Z,423.00
2022-11-28T10:43:52.629Z,435.00
2022-11-28T10:44:48.075Z,434.00
2022-11-28T10:45:43.612Z,434.00
2022-11-28T10:46:38.953Z,446.00
2022-11-28T10:47:34.417Z,435.00
2022-11-28T10:48:39.667Z,427.00
2022-11-28T10:49:26.324Z,424.00
2022-11-28T10:50:21.135Z,445.00
2022-11-28T10:51:16.628Z,437.00
2022-11-28T10:52:12.123Z,434.00
2022-11-28T10:53:07.179Z,443.00
2022-11-28T10:54:02.233Z,434.00
2022-11-28T10:54:57.379Z,435.00
2022-11-28T10:55:52.402Z,431.00
2022-11-28T10:56:47.502Z,428.00
2022-11-28T10:57:42.581Z,434.00
2022-11-28T10:58:37.559Z,440.00
2022-11-28T10:59:34.727Z,429.00
2022-11-28T11:00:29.752Z,432.00
2022-11-28T11:01:24.928Z,431.00
2022-11-28T11:02:19.923Z,428.00
2022-11-28T11:03:14.961Z,422.00
2022-11-28T11:04:10.108Z,425.00
2022-11-28T11:05:05.064Z,433.00
2022-11-28T11:06:00.131Z,434.00
2022-11-28T11:07:08.822Z,431.00
2022-11-28T11:07:51.282Z,433.00
2022-11-28T11:08:45.289Z,430.00
2022-11-28T11:09:40.578Z,443.00
2022-11-28T11:10:35.418Z,435.00
2022-11-28T11:11:30.505Z,438.00
2022-11-28T11:12:25.574Z,437.00
2022-11-28T11:13:20.761Z,432.00
2022-11-28T11:14:16.231Z,424.00
2022-11-28T11:15:15.054Z,431.00
2022-11-28T11:16:10.506Z,441.00
2022-11-28T11:17:05.988Z,436.00
2022-11-28T11:18:01.436Z,433.00
2022-11-28T11:18:56.889Z,441.00
2022-11-28T11:19:52.354Z,441.00
2022-11-28T11:20:47.938Z,433.00
2022-11-28T11:21:43.364Z,438.00
2022-11-28T11:22:39.019Z,432.00
2022-11-28T11:23:38.212Z,430.00
2022-11-28T11:24:30.009Z,446.00
2022-11-28T11:25:25.483Z,428.00
2022-11-28T11:26:21.080Z,428.00
2022-11-28T11:27:16.529Z,430.00
2022-11-28T11:28:12.111Z,432.00
2022-11-28T11:29:07.115Z,426.00
2022-11-28T11:30:02.150Z,426.00